Fortine, Montana
Current Conditions -  °F | °C
As of 5:24 AM on Monday 20 Oct 2014 (Local Time) from KGPI Reporting Station
Haze Haze  
Wind Chill: 31°   Ceiling: 100
Heat Index: 31°   Visibility: 2mi
Dew Point: 30°   Wind: 0mph
Humidity: 96%   Direction: NA
Pressure: 29.87"   Gusts: NA
Location:  48.76°N, 114.9°W
Report Text: KGPI 201124Z AUTO 00000KT 2SM BR BKN001 M01/M01 A2987 RMK AO2 VIS 1/2 NE T10061011 $
Loading
Personal Weather Stations






























Interactive Weather Map
Tropical Storm Tracking
New forecast layout! Learn more

10-Day Weather Forecast

Advertisements
Track Severe Weather on mobile